Time;durP1;ratioP1;P1;durP2;ratioP2;P2;SDS_P1;SDS_P2;PMS_P1;PMS_P2;Temp;Humidity;BMP_temperature;BMP_pressure;BME280_temperature;BME280_humidity;BME280_pressure;Samples;Min_cycle;Max_cycle;Signal;HPM_P1;HPM_P2
2021/08/09 00:00:38;;;;;;;1.60;1.50;;;13.90;99.90;;;;;;5030091;28;20274;-63
2021/08/09 00:03:04;;;;;;;1.40;1.30;;;13.90;99.90;;;;;;5034258;28;20169;-63
2021/08/09 00:05:30;;;;;;;2.20;1.90;;;13.80;99.90;;;;;;5034269;28;20975;-64
2021/08/09 00:07:55;;;;;;;1.40;1.30;;;13.80;99.90;;;;;;5033800;28;20271;-64
2021/08/09 00:10:21;;;;;;;1.37;1.23;;;13.70;99.90;;;;;;5034194;28;20255;-64
2021/08/09 00:12:47;;;;;;;1.20;1.10;;;13.70;99.90;;;;;;5033915;28;20644;-64
2021/08/09 00:15:12;;;;;;;1.17;1.17;;;13.60;99.90;;;;;;5033300;28;20571;-64
2021/08/09 00:17:38;;;;;;;1.90;1.80;;;13.60;99.90;;;;;;5032048;28;20705;-63
2021/08/09 00:20:04;;;;;;;1.87;1.60;;;13.60;99.90;;;;;;5033608;28;20406;-64
2021/08/09 00:22:30;;;;;;;1.70;1.60;;;13.50;99.90;;;;;;5033926;28;20173;-65
2021/08/09 00:24:55;;;;;;;2.77;1.97;;;13.50;99.90;;;;;;5033696;28;20468;-63
2021/08/09 00:27:21;;;;;;;2.03;1.57;;;13.50;99.90;;;;;;5033183;28;20657;-63
2021/08/09 00:29:47;;;;;;;1.67;1.43;;;13.50;99.90;;;;;;5019988;28;20211;-63
2021/08/09 00:32:12;;;;;;;1.00;0.90;;;13.50;99.90;;;;;;5013904;28;20176;-63
2021/08/09 00:34:38;;;;;;;2.53;2.03;;;13.50;99.90;;;;;;5013576;28;20200;-64
2021/08/09 00:37:04;;;;;;;2.33;1.57;;;13.40;99.90;;;;;;5013356;28;20703;-64
2021/08/09 00:39:30;;;;;;;1.77;1.60;;;13.40;99.90;;;;;;5013891;28;20420;-63
2021/08/09 00:41:56;;;;;;;1.93;1.60;;;13.40;99.90;;;;;;5013920;28;20526;-64
2021/08/09 00:44:21;;;;;;;1.77;1.67;;;13.40;99.90;;;;;;5013525;28;20506;-62
2021/08/09 00:46:47;;;;;;;4.60;2.00;;;13.40;99.90;;;;;;5013198;28;20215;-64
2021/08/09 00:49:13;;;;;;;3.00;1.87;;;13.30;99.90;;;;;;5013603;28;20195;-64
2021/08/09 00:51:38;;;;;;;1.90;1.80;;;13.30;99.90;;;;;;5013693;28;20226;-63
2021/08/09 00:54:04;;;;;;;2.37;1.50;;;13.30;99.90;;;;;;5013505;28;20193;-63
2021/08/09 00:56:30;;;;;;;1.60;1.50;;;13.30;99.90;;;;;;5013379;28;20179;-67
2021/08/09 00:58:58;;;;;;;2.87;2.40;;;13.30;99.90;;;;;;5022842;28;20522;-64
2021/08/09 01:01:24;;;;;;;3.07;1.60;;;13.30;99.90;;;;;;5033111;28;20789;-64
2021/08/09 01:03:49;;;;;;;1.37;1.30;;;13.20;99.90;;;;;;5033220;28;20382;-64
2021/08/09 01:06:15;;;;;;;3.67;1.80;;;13.20;99.90;;;;;;5030723;28;20410;-64
2021/08/09 01:08:50;;;;;;;2.47;2.27;;;13.20;99.90;;;;;;5012873;28;20280;-65
2021/08/09 01:11:47;;;;;;;1.47;1.30;;;13.20;99.90;;;;;;5013439;28;20416;-62
2021/08/09 01:14:33;;;;;;;1.50;1.40;;;13.20;99.90;;;;;;5013404;28;20452;-62
2021/08/09 01:17:00;;;;;;;1.43;1.33;;;13.30;99.90;;;;;;5015673;28;20473;-65
2021/08/09 01:19:38;;;;;;;1.90;1.80;;;13.20;99.90;;;;;;5013251;28;20426;-61
2021/08/09 01:22:23;;;;;;;2.07;1.87;;;13.30;99.90;;;;;;5014094;28;20390;-63
2021/08/09 01:25:27;;;;;;;2.07;1.97;;;13.30;99.90;;;;;;5013379;28;20393;-64
2021/08/09 01:27:54;;;;;;;1.87;1.70;;;13.30;99.90;;;;;;5012525;28;20522;-62
2021/08/09 01:30:21;;;;;;;1.63;1.53;;;13.30;99.90;;;;;;5013271;28;20779;-64
2021/08/09 01:32:48;;;;;;;1.57;1.40;;;13.30;99.90;;;;;;5012998;28;20418;-63
2021/08/09 01:35:16;;;;;;;1.00;1.00;;;13.30;99.90;;;;;;4993911;28;20551;-64
2021/08/09 01:37:45;;;;;;;1.53;1.43;;;13.30;99.90;;;;;;5020397;28;20460;-62
2021/08/09 01:40:13;;;;;;;1.73;1.63;;;13.30;99.90;;;;;;5035606;28;20545;-63
2021/08/09 01:42:43;;;;;;;1.67;1.57;;;13.30;99.90;;;;;;5036765;28;20415;-62
2021/08/09 01:45:09;;;;;;;1.53;1.43;;;13.30;99.90;;;;;;5036808;28;20493;-63
2021/08/09 01:47:36;;;;;;;2.73;2.00;;;13.30;99.90;;;;;;5035801;28;20447;-62
2021/08/09 01:50:03;;;;;;;2.27;1.43;;;13.20;99.90;;;;;;5036318;28;20426;-64
2021/08/09 01:52:30;;;;;;;1.50;1.40;;;13.20;99.90;;;;;;5036581;28;20419;-63
2021/08/09 01:54:56;;;;;;;1.73;1.63;;;13.10;99.90;;;;;;5036594;28;20540;-64
2021/08/09 01:57:24;;;;;;;1.67;1.57;;;13.10;99.90;;;;;;5036045;28;20875;-62
2021/08/09 01:59:50;;;;;;;1.60;1.50;;;13.10;99.90;;;;;;5036296;28;20521;-63
2021/08/09 02:02:27;;;;;;;1.80;1.70;;;13.00;99.90;;;;;;5036422;28;20500;-64
2021/08/09 02:04:52;;;;;;;4.80;1.45;;;13.00;99.90;;;;;;4996947;28;20408;-64
2021/08/09 02:07:19;;;;;;;1.37;1.27;;;12.90;99.90;;;;;;4996526;28;20648;-62
2021/08/09 02:09:44;;;;;;;1.60;1.50;;;12.90;99.90;;;;;;4995606;28;20755;-63
2021/08/09 02:12:10;;;;;;;2.67;1.30;;;12.80;99.90;;;;;;4996830;28;20506;-63
2021/08/09 02:14:43;;;;;;;1.70;1.60;;;12.80;99.90;;;;;;4996954;28;20559;-63
2021/08/09 02:17:14;;;;;;;1.65;1.55;;;12.80;99.90;;;;;;5025374;28;20186;-63
2021/08/09 02:19:51;;;;;;;1.60;1.50;;;12.80;99.90;;;;;;5036068;28;20211;-63
2021/08/09 02:22:23;;;;;;;1.25;1.25;;;12.80;99.90;;;;;;5036087;28;20206;-64
2021/08/09 02:25:01;;;;;;;1.30;1.08;;;12.70;99.90;;;;;;5036209;28;20507;-64
2021/08/09 02:27:39;;;;;;;2.17;1.97;;;12.70;99.90;;;;;;5035656;28;20175;-63
2021/08/09 02:30:05;;;;;;;1.42;1.33;;;12.70;99.90;;;;;;5035688;28;20459;-66
2021/08/09 02:32:32;;;;;;;1.40;1.30;;;12.70;99.90;;;;;;5035046;28;20184;-62
2021/08/09 02:34:59;;;;;;;2.90;2.63;;;12.60;99.90;;;;;;5035627;28;20454;-64
2021/08/09 02:37:27;;;;;;;4.23;2.03;;;12.60;99.90;;;;;;5035510;28;20457;-63
2021/08/09 02:39:54;;;;;;;1.73;1.63;;;12.50;99.90;;;;;;5035594;28;20422;-65
2021/08/09 02:42:20;;;;;;;1.40;1.30;;;12.50;99.90;;;;;;5035609;28;20240;-63
2021/08/09 02:44:47;;;;;;;1.60;1.50;;;12.50;99.90;;;;;;5035596;28;20240;-63
2021/08/09 02:47:14;;;;;;;1.92;1.83;;;12.50;99.90;;;;;;5034900;28;20184;-65
2021/08/09 02:49:46;;;;;;;1.70;1.60;;;12.50;99.90;;;;;;5035335;28;20295;-64
2021/08/09 02:52:12;;;;;;;2.27;1.60;;;12.50;99.90;;;;;;5035658;28;20410;-62
2021/08/09 02:54:38;;;;;;;1.75;1.65;;;12.50;99.90;;;;;;5035574;28;20491;-64
2021/08/09 02:57:05;;;;;;;2.85;1.75;;;12.50;99.90;;;;;;5034950;28;20174;-65
2021/08/09 02:59:31;;;;;;;1.45;1.30;;;12.40;99.90;;;;;;5035449;28;20198;-63
2021/08/09 03:01:58;;;;;;;2.25;2.05;;;12.50;99.90;;;;;;5016052;28;20207;-64
2021/08/09 03:04:26;;;;;;;2.70;1.85;;;12.40;99.90;;;;;;5015914;28;20668;-61
2021/08/09 03:06:56;;;;;;;1.50;1.40;;;12.40;99.90;;;;;;5015062;28;20171;-64
2021/08/09 03:09:22;;;;;;;1.30;1.20;;;12.30;99.90;;;;;;5015409;28;20245;-63
2021/08/09 03:11:47;;;;;;;1.57;1.47;;;12.40;99.90;;;;;;5015443;28;20653;-64
2021/08/09 03:14:26;;;;;;;1.70;1.60;;;12.30;99.90;;;;;;5015495;28;21026;-64
2021/08/09 03:16:52;;;;;;;3.33;1.55;;;12.30;99.90;;;;;;5014743;28;20209;-64
2021/08/09 03:19:19;;;;;;;1.63;1.52;;;12.20;99.90;;;;;;5015188;28;20196;-62
2021/08/09 03:22:01;;;;;;;1.88;1.77;;;12.20;99.90;;;;;;5013849;28;20166;-64
2021/08/09 03:24:28;;;;;;;2.35;1.23;;;12.10;99.90;;;;;;5015185;28;20522;-62
2021/08/09 03:26:54;;;;;;;2.28;2.08;;;12.10;99.90;;;;;;5014634;28;20178;-65
2021/08/09 03:29:20;;;;;;;2.33;2.17;;;12.10;99.90;;;;;;5015859;28;20234;-63
2021/08/09 03:31:46;;;;;;;2.13;1.90;;;12.10;99.90;;;;;;5034587;28;20220;-64
2021/08/09 03:34:12;;;;;;;2.33;1.70;;;12.00;99.90;;;;;;5034793;28;20194;-63
2021/08/09 03:36:47;;;;;;;2.40;1.90;;;12.00;99.90;;;;;;5034326;28;20428;-63
2021/08/09 03:39:16;;;;;;;1.88;1.77;;;11.90;99.90;;;;;;5034517;28;20503;-63
2021/08/09 03:41:42;;;;;;;2.55;1.67;;;11.90;99.90;;;;;;5034439;28;20917;-63
2021/08/09 03:44:08;;;;;;;2.33;2.13;;;11.90;99.90;;;;;;5032759;28;20189;-63
2021/08/09 03:46:34;;;;;;;3.15;1.38;;;11.90;99.90;;;;;;5034086;28;20170;-65
2021/08/09 03:49:04;;;;;;;2.67;1.90;;;11.90;99.90;;;;;;5034223;28;20544;-61
2021/08/09 03:51:36;;;;;;;3.22;2.03;;;11.90;99.90;;;;;;5034548;28;20764;-65
2021/08/09 03:54:02;;;;;;;2.20;1.90;;;11.90;99.90;;;;;;5034317;28;20556;-62
2021/08/09 03:56:28;;;;;;;3.70;1.43;;;11.90;99.90;;;;;;5034074;28;20167;-64
2021/08/09 03:58:53;;;;;;;1.77;1.67;;;11.90;99.90;;;;;;5032868;28;20496;-63
2021/08/09 04:01:19;;;;;;;1.20;1.10;;;11.90;99.90;;;;;;5033298;28;20249;-63
2021/08/09 04:03:44;;;;;;;1.57;1.47;;;11.90;99.90;;;;;;5033286;28;20214;-61
2021/08/09 04:06:10;;;;;;;1.90;1.80;;;11.90;99.90;;;;;;5033819;28;20543;-61
2021/08/09 04:08:40;;;;;;;2.85;2.15;;;11.90;99.90;;;;;;5033400;28;20214;-63
2021/08/09 04:11:05;;;;;;;1.88;1.67;;;12.00;99.90;;;;;;5034030;28;20174;-62
2021/08/09 04:13:31;;;;;;;1.70;1.60;;;12.00;99.90;;;;;;5033920;28;20576;-61
2021/08/09 04:15:56;;;;;;;2.03;1.80;;;12.00;99.90;;;;;;5033969;28;20194;-62
2021/08/09 04:18:22;;;;;;;1.50;1.40;;;12.10;99.90;;;;;;5033501;28;20715;-63
2021/08/09 04:20:48;;;;;;;1.60;1.50;;;12.10;99.90;;;;;;5033907;28;20178;-62
2021/08/09 04:23:13;;;;;;;1.80;1.47;;;12.00;99.90;;;;;;5033515;28;20202;-63
2021/08/09 04:25:39;;;;;;;4.90;1.27;;;12.00;99.90;;;;;;5033607;28;20203;-62
2021/08/09 04:28:04;;;;;;;1.37;1.27;;;12.00;99.90;;;;;;5033226;28;20711;-62
2021/08/09 04:30:30;;;;;;;1.93;1.83;;;12.00;99.90;;;;;;5014834;28;20194;-63
2021/08/09 04:32:56;;;;;;;1.47;1.37;;;12.00;99.90;;;;;;5013588;28;20222;-63
2021/08/09 04:35:21;;;;;;;2.40;1.60;;;11.90;99.90;;;;;;5013652;28;20270;-63
2021/08/09 04:37:47;;;;;;;2.03;1.93;;;11.90;99.90;;;;;;5013277;28;20626;-61
2021/08/09 04:40:14;;;;;;;1.93;1.83;;;12.00;99.90;;;;;;5013494;28;20175;-64
2021/08/09 04:42:40;;;;;;;1.98;1.88;;;12.00;99.90;;;;;;5013582;28;20179;-65
2021/08/09 04:45:06;;;;;;;1.97;1.87;;;12.10;99.90;;;;;;5013533;28;20182;-65
2021/08/09 04:47:32;;;;;;;2.22;2.10;;;12.10;99.90;;;;;;5013083;28;20298;-62
2021/08/09 04:49:57;;;;;;;1.70;1.60;;;12.20;99.90;;;;;;5013719;28;20195;-64
2021/08/09 04:52:23;;;;;;;1.67;1.57;;;12.20;99.90;;;;;;5012207;28;20642;-63
2021/08/09 04:54:49;;;;;;;2.97;1.83;;;12.30;99.90;;;;;;5013638;28;20203;-63
2021/08/09 04:57:14;;;;;;;1.67;1.57;;;12.40;99.90;;;;;;5013134;28;20172;-63
2021/08/09 04:59:40;;;;;;;3.23;1.20;;;12.50;99.90;;;;;;5028589;28;20218;-63
2021/08/09 05:02:05;;;;;;;2.57;2.30;;;12.60;99.90;;;;;;5033031;28;20215;-63
2021/08/09 05:04:31;;;;;;;3.40;2.17;;;12.80;99.90;;;;;;5033338;28;20191;-62
2021/08/09 05:06:57;;;;;;;1.40;1.30;;;12.80;99.90;;;;;;5032827;28;20187;-63
2021/08/09 05:09:22;;;;;;;2.30;1.97;;;12.90;99.90;;;;;;5033058;28;20331;-61
2021/08/09 05:11:48;;;;;;;3.70;2.67;;;13.10;99.90;;;;;;5026596;28;20180;-65
2021/08/09 05:14:13;;;;;;;2.40;2.20;;;13.20;99.90;;;;;;5012403;28;20192;-63
2021/08/09 05:16:41;;;;;;;2.10;2.00;;;13.50;99.90;;;;;;5013022;28;20174;-64
2021/08/09 05:19:08;;;;;;;2.10;1.30;;;13.70;99.90;;;;;;5013070;28;20256;-63
2021/08/09 05:21:34;;;;;;;1.60;1.50;;;13.90;99.90;;;;;;5013097;28;20401;-64
2021/08/09 05:24:02;;;;;;;1.37;1.27;;;14.00;99.90;;;;;;5013037;28;20412;-62
2021/08/09 05:26:28;;;;;;;1.50;1.40;;;14.10;99.90;;;;;;5013214;28;20431;-64
2021/08/09 05:28:54;;;;;;;2.33;1.80;;;14.10;99.90;;;;;;5011432;28;20448;-63
2021/08/09 05:31:20;;;;;;;1.13;1.13;;;14.10;99.90;;;;;;5013793;28;20495;-65
2021/08/09 05:33:46;;;;;;;1.73;1.60;;;14.20;99.90;;;;;;5026565;28;20721;-64
2021/08/09 05:36:12;;;;;;;3.27;1.67;;;14.40;99.90;;;;;;5031640;28;20422;-63
2021/08/09 05:38:38;;;;;;;1.50;1.40;;;14.50;99.90;;;;;;5018362;28;20198;-63
2021/08/09 05:41:05;;;;;;;2.20;2.10;;;14.60;99.90;;;;;;5012960;28;20692;-63
2021/08/09 05:43:31;;;;;;;1.20;1.20;;;14.70;99.90;;;;;;5032606;28;20395;-64
2021/08/09 05:45:56;;;;;;;3.27;1.37;;;14.90;99.90;;;;;;5031604;28;20469;-63
2021/08/09 05:48:22;;;;;;;1.60;1.50;;;15.10;99.90;;;;;;5032156;28;20428;-64
2021/08/09 05:50:48;;;;;;;1.27;1.13;;;15.20;99.90;;;;;;5032787;28;20174;-63
2021/08/09 05:53:13;;;;;;;1.33;1.33;;;15.20;99.90;;;;;;5032402;28;20521;-64
2021/08/09 05:55:39;;;;;;;8.93;1.50;;;15.40;99.90;;;;;;5031149;28;20216;-65
2021/08/09 05:58:04;;;;;;;1.20;1.20;;;15.60;99.90;;;;;;5032182;28;20224;-64
2021/08/09 06:00:30;;;;;;;1.33;1.23;;;15.60;99.90;;;;;;5032598;28;20162;-63
2021/08/09 06:02:56;;;;;;;1.40;1.30;;;15.70;99.90;;;;;;5032578;28;20699;-64
2021/08/09 06:05:22;;;;;;;1.53;1.00;;;15.70;99.90;;;;;;5032545;28;20657;-63
2021/08/09 06:07:48;;;;;;;1.70;1.60;;;15.80;99.90;;;;;;5021410;28;20179;-63
2021/08/09 06:10:13;;;;;;;1.40;1.30;;;15.80;99.90;;;;;;5012785;28;20422;-64
2021/08/09 06:12:39;;;;;;;1.23;1.13;;;15.80;99.90;;;;;;5012663;28;20649;-63
2021/08/09 06:15:06;;;;;;;1.17;1.07;;;15.80;99.90;;;;;;5012997;28;20210;-65
2021/08/09 06:17:33;;;;;;;1.80;1.43;;;15.80;99.90;;;;;;5012310;28;20542;-61
2021/08/09 06:19:59;;;;;;;1.43;1.33;;;15.80;99.90;;;;;;5012731;28;20432;-63
2021/08/09 06:22:24;;;;;;;1.90;1.80;;;15.90;99.90;;;;;;5012629;28;20410;-64
2021/08/09 06:24:50;;;;;;;1.47;1.20;;;16.00;99.90;;;;;;5013270;28;20624;-63
2021/08/09 06:27:16;;;;;;;1.77;1.40;;;16.00;99.90;;;;;;5015830;28;20646;-63
2021/08/09 06:29:41;;;;;;;2.23;0.80;;;16.00;99.90;;;;;;5015996;28;20230;-64
2021/08/09 06:32:07;;;;;;;1.57;1.47;;;16.10;99.90;;;;;;5016181;28;20637;-63
2021/08/09 06:34:33;;;;;;;2.10;1.90;;;16.20;99.90;;;;;;5015932;28;20212;-64
2021/08/09 06:36:58;;;;;;;0.83;0.83;;;16.40;99.90;;;;;;5022910;28;20178;-64
2021/08/09 06:39:24;;;;;;;1.87;1.60;;;16.50;99.90;;;;;;5035405;28;20190;-63
2021/08/09 06:41:50;;;;;;;1.13;1.13;;;16.70;99.90;;;;;;5035646;28;20194;-64
2021/08/09 06:44:15;;;;;;;2.10;1.17;;;16.90;99.90;;;;;;5035545;28;20185;-62
2021/08/09 06:46:41;;;;;;;4.10;1.83;;;17.00;99.90;;;;;;5035129;28;20184;-64
2021/08/09 06:49:07;;;;;;;1.00;1.00;;;17.10;99.90;;;;;;5035514;28;20546;-62
2021/08/09 06:51:32;;;;;;;0.73;0.73;;;17.20;99.90;;;;;;5035165;28;20439;-62
2021/08/09 06:53:58;;;;;;;0.70;0.70;;;17.30;99.90;;;;;;5035203;28;20227;-64
2021/08/09 06:56:24;;;;;;;1.10;1.10;;;17.50;99.90;;;;;;5035366;28;20211;-64
2021/08/09 06:58:49;;;;;;;1.30;1.20;;;17.70;99.90;;;;;;5034910;28;20225;-64
2021/08/09 07:01:15;;;;;;;1.90;1.33;;;17.90;99.90;;;;;;5035318;28;20182;-63
2021/08/09 07:03:45;;;;;;;1.00;1.00;;;18.10;99.90;;;;;;5035237;28;20219;-63
2021/08/09 07:06:22;;;;;;;0.80;0.80;;;18.30;99.90;;;;;;5028828;28;20173;-64
2021/08/09 07:08:51;;;;;;;1.20;0.80;;;18.40;99.90;;;;;;5014948;28;20424;-63
2021/08/09 07:11:18;;;;;;;0.87;0.87;;;18.60;99.90;;;;;;5015553;28;20398;-62
2021/08/09 07:13:44;;;;;;;4.10;1.30;;;18.90;99.90;;;;;;5015340;28;20456;-63
2021/08/09 07:16:09;;;;;;;0.80;0.80;;;19.10;99.90;;;;;;5015286;28;20444;-64
2021/08/09 07:18:35;;;;;;;1.20;0.73;;;19.30;99.90;;;;;;5014606;28;21090;-63
2021/08/09 07:21:01;;;;;;;1.30;1.17;;;19.40;99.90;;;;;;5014829;28;20248;-62
2021/08/09 07:23:27;;;;;;;1.70;0.93;;;19.50;99.90;;;;;;5014506;28;20525;-62
2021/08/09 07:25:53;;;;;;;1.33;1.23;;;19.80;99.90;;;;;;5013461;28;20418;-62
2021/08/09 07:28:19;;;;;;;1.30;0.80;;;20.10;99.90;;;;;;5014425;28;20191;-64
2021/08/09 07:30:45;;;;;;;0.87;0.80;;;20.50;99.90;;;;;;5014615;28;20935;-62
2021/08/09 07:33:11;;;;;;;1.57;1.00;;;20.90;99.90;;;;;;5019148;28;20622;-64
2021/08/09 07:35:37;;;;;;;0.80;0.80;;;21.40;99.90;;;;;;5035099;28;20266;-64
2021/08/09 07:38:04;;;;;;;1.40;1.20;;;22.10;99.60;;;;;;5033574;28;20439;-64
2021/08/09 07:40:30;;;;;;;0.90;0.90;;;22.80;98.30;;;;;;5034697;28;20475;-64
2021/08/09 07:42:56;;;;;;;0.80;0.80;;;23.50;97.90;;;;;;5035549;28;20427;-63
2021/08/09 07:45:23;;;;;;;1.20;1.20;;;24.30;96.40;;;;;;5034769;28;20505;-64
2021/08/09 07:47:52;;;;;;;0.77;0.77;;;24.90;95.00;;;;;;5033864;28;20917;-63
2021/08/09 07:50:19;;;;;;;0.77;0.70;;;25.70;92.40;;;;;;5034740;28;20796;-64
2021/08/09 07:52:45;;;;;;;0.60;0.53;;;26.40;91.70;;;;;;5034602;28;20846;-64
2021/08/09 07:55:11;;;;;;;0.83;0.80;;;27.20;87.40;;;;;;5034547;28;20466;-66
2021/08/09 07:57:37;;;;;;;0.70;0.70;;;28.10;84.40;;;;;;5034071;28;20409;-61
2021/08/09 08:00:03;;;;;;;0.80;0.77;;;28.50;83.30;;;;;;5034350;28;20198;-62
2021/08/09 08:02:29;;;;;;;0.90;0.90;;;29.10;79.50;;;;;;5031738;28;20544;-61
2021/08/09 08:04:55;;;;;;;1.50;1.13;;;29.70;79.50;;;;;;5014549;28;20402;-61
2021/08/09 08:07:20;;;;;;;1.07;1.07;;;30.40;78.10;;;;;;5014166;28;20175;-61
2021/08/09 08:09:48;;;;;;;0.90;0.90;;;31.10;74.10;;;;;;5014429;28;20285;-63
2021/08/09 08:12:14;;;;;;;2.30;0.90;;;31.00;70.00;;;;;;5014256;28;20631;-63
2021/08/09 08:14:40;;;;;;;1.33;1.10;;;31.00;70.80;;;;;;5014740;28;20460;-64
2021/08/09 08:17:06;;;;;;;1.20;1.10;;;31.30;69.80;;;;;;5013692;28;20385;-62
2021/08/09 08:19:31;;;;;;;0.90;0.80;;;31.80;66.40;;;;;;5014105;28;20210;-62
2021/08/09 08:21:57;;;;;;;1.33;1.00;;;32.10;62.90;;;;;;5014328;28;20779;-64
2021/08/09 08:24:23;;;;;;;1.40;1.30;;;32.20;62.90;;;;;;5028618;28;20182;-63
2021/08/09 08:26:48;;;;;;;0.97;0.97;;;32.50;62.90;;;;;;5033393;28;20170;-64
2021/08/09 08:29:14;;;;;;;1.30;1.30;;;32.80;62.00;;;;;;5033457;28;20552;-61
2021/08/09 08:31:42;;;;;;;1.00;0.90;;;33.10;60.20;;;;;;5033335;28;20196;-63
2021/08/09 08:34:08;;;;;;;1.10;1.00;;;33.40;59.80;;;;;;5033284;28;20202;-62
2021/08/09 08:36:33;;;;;;;0.70;0.70;;;33.80;58.70;;;;;;5033448;28;20409;-63
2021/08/09 08:38:59;;;;;;;0.80;0.80;;;34.60;57.80;;;;;;5032919;28;20739;-63
2021/08/09 08:41:25;;;;;;;1.57;1.47;;;35.10;57.10;;;;;;5033402;28;20162;-62
2021/08/09 08:43:51;;;;;;;1.67;1.57;;;35.40;56.20;;;;;;5033355;28;20251;-63
2021/08/09 08:46:17;;;;;;;1.00;0.90;;;35.90;54.10;;;;;;5033166;28;20632;-62
2021/08/09 08:48:43;;;;;;;0.90;0.90;;;36.50;52.80;;;;;;5032867;28;20186;-62
2021/08/09 08:51:08;;;;;;;0.90;0.90;;;36.90;52.70;;;;;;5033252;28;20405;-62
2021/08/09 08:53:36;;;;;;;1.10;1.10;;;37.20;50.70;;;;;;5020985;28;20639;-64
2021/08/09 08:56:06;;;;;;;0.90;0.90;;;37.10;49.50;;;;;;5013586;28;20198;-62
2021/08/09 08:58:32;;;;;;;0.80;0.80;;;37.10;50.30;;;;;;5013237;28;20434;-64
2021/08/09 09:00:58;;;;;;;1.00;1.00;;;37.30;49.50;;;;;;5013562;28;20456;-62
2021/08/09 09:03:26;;;;;;;0.90;0.90;;;37.60;48.60;;;;;;5013554;28;20174;-65
2021/08/09 09:06:04;;;;;;;1.13;1.03;;;38.00;48.10;;;;;;5012237;28;20228;-62
2021/08/09 09:08:47;;;;;;;2.37;1.33;;;38.00;46.90;;;;;;5012918;28;20587;-64
2021/08/09 09:11:36;;;;;;;1.00;1.00;;;38.00;48.00;;;;;;5013650;28;20452;-63
2021/08/09 09:14:04;;;;;;;0.90;0.90;;;37.80;47.40;;;;;;5013525;28;20797;-64
2021/08/09 09:16:47;;;;;;;1.30;1.20;;;37.80;47.30;;;;;;5018899;28;20498;-67
2021/08/09 09:19:33;;;;;;;1.10;1.10;;;37.70;47.80;;;;;;5013437;28;20784;-64
2021/08/09 09:22:00;;;;;;;1.57;1.47;;;37.30;48.30;;;;;;5013260;28;20904;-65
2021/08/09 09:24:26;;;;;;;1.30;1.23;;;37.40;47.60;;;;;;5013304;28;20501;-64
2021/08/09 09:26:55;;;;;;;1.47;1.20;;;37.30;46.20;;;;;;5019819;28;20745;-65
2021/08/09 09:29:21;;;;;;;1.10;1.10;;;37.60;47.40;;;;;;5032802;28;20477;-62
2021/08/09 09:31:47;;;;;;;1.00;1.00;;;37.50;47.30;;;;;;5032829;28;20437;-65
2021/08/09 09:34:16;;;;;;;1.20;1.20;;;36.90;47.10;;;;;;5032954;28;20225;-62
2021/08/09 09:36:49;;;;;;;1.33;0.90;;;36.10;46.60;;;;;;5032648;28;20448;-63
2021/08/09 09:39:31;;;;;;;4.00;1.10;;;35.10;48.70;;;;;;5030843;28;20448;-62
2021/08/09 09:41:58;;;;;;;1.03;1.03;;;34.60;48.50;;;;;;5032357;28;20500;-63
2021/08/09 09:44:29;;;;;;;1.00;1.00;;;34.30;49.40;;;;;;5033041;28;20490;-62
2021/08/09 09:47:19;;;;;;;1.30;1.20;;;34.50;49.70;;;;;;5024953;28;20437;-63
2021/08/09 09:49:47;;;;;;;1.10;1.00;;;34.90;49.40;;;;;;5013164;28;20437;-62
2021/08/09 09:52:29;;;;;;;0.97;0.80;;;35.00;48.40;;;;;;5013258;28;20441;-63
2021/08/09 09:54:58;;;;;;;1.27;1.13;;;35.30;49.50;;;;;;5013184;28;20553;-62
2021/08/09 09:57:24;;;;;;;1.00;1.00;;;35.50;49.30;;;;;;5012787;28;20750;-62
2021/08/09 09:59:50;;;;;;;0.90;0.90;;;35.80;49.20;;;;;;5013445;28;20873;-64
2021/08/09 10:02:16;;;;;;;1.10;0.97;;;36.20;46.40;;;;;;5016601;28;20471;-63
2021/08/09 10:04:42;;;;;;;1.20;1.10;;;36.50;46.10;;;;;;5016642;28;20179;-63
2021/08/09 10:07:08;;;;;;;1.43;1.00;;;36.80;46.30;;;;;;5016571;28;20183;-64
2021/08/09 10:09:36;;;;;;;1.07;1.07;;;37.10;46.20;;;;;;5016411;28;20637;-64
2021/08/09 10:12:04;;;;;;;1.30;1.20;;;37.40;46.00;;;;;;5016691;28;20416;-63
2021/08/09 10:14:33;;;;;;;1.00;1.00;;;37.50;44.90;;;;;;5016317;28;20507;-62
2021/08/09 10:16:59;;;;;;;1.20;1.20;;;37.80;44.70;;;;;;5027252;28;20421;-63
2021/08/09 10:19:26;;;;;;;0.90;0.90;;;37.90;44.10;;;;;;5035802;28;20452;-62
2021/08/09 10:21:52;;;;;;;0.87;0.80;;;37.50;43.30;;;;;;5035836;28;20434;-62
2021/08/09 10:24:37;;;;;;;1.87;1.77;;;36.10;45.20;;;;;;5035822;28;20397;-61
2021/08/09 10:27:03;;;;;;;1.60;1.50;;;34.60;48.10;;;;;;5035736;28;20177;-64
2021/08/09 10:29:29;;;;;;;1.23;1.13;;;34.30;46.90;;;;;;5025879;28;20437;-62
2021/08/09 10:32:20;;;;;;;0.90;0.90;;;34.50;46.90;;;;;;5015737;28;20187;-63
2021/08/09 10:34:46;;;;;;;1.20;1.10;;;34.40;47.10;;;;;;5016021;28;20203;-61
2021/08/09 10:37:17;;;;;;;1.47;1.10;;;34.40;48.70;;;;;;5015502;28;20406;-64
2021/08/09 10:39:59;;;;;;;1.23;1.13;;;34.40;48.00;;;;;;5015892;28;20789;-64
2021/08/09 10:42:42;;;;;;;1.00;1.00;;;33.90;49.50;;;;;;5015960;28;20433;-62
2021/08/09 10:45:37;;;;;;;1.50;1.13;;;33.80;49.10;;;;;;5032141;28;20454;-63
2021/08/09 10:48:04;;;;;;;1.10;1.10;;;34.10;48.10;;;;;;5034611;28;20445;-64
2021/08/09 10:50:35;;;;;;;1.23;1.00;;;34.50;48.00;;;;;;5034310;28;20508;-64
2021/08/09 10:53:01;;;;;;;1.50;1.40;;;34.50;46.70;;;;;;5035573;28;20440;-62
2021/08/09 10:55:29;;;;;;;1.47;1.23;;;34.20;47.20;;;;;;5035524;28;20463;-62
2021/08/09 10:57:59;;;;;;;2.17;1.97;;;34.10;47.80;;;;;;5034616;28;20246;-62
2021/08/09 11:00:40;;;;;;;1.10;1.10;;;34.10;48.40;;;;;;5035195;28;20416;-62
2021/08/09 11:03:08;;;;;;;1.20;1.10;;;33.90;48.40;;;;;;5035089;28;20492;-62
2021/08/09 11:05:34;;;;;;;1.20;1.10;;;34.10;48.90;;;;;;5034817;28;20394;-64
2021/08/09 11:08:18;;;;;;;6.40;1.23;;;34.10;48.40;;;;;;5034713;28;20774;-63
2021/08/09 11:10:56;;;;;;;1.63;1.53;;;33.70;48.10;;;;;;5034863;28;20185;-62
2021/08/09 11:13:22;;;;;;;1.57;1.40;;;33.00;49.90;;;;;;5028019;28;20427;-64
2021/08/09 11:15:58;;;;;;;1.87;1.50;;;32.10;50.30;;;;;;5015181;28;20517;-62
2021/08/09 11:18:27;;;;;;;1.27;1.17;;;31.70;50.90;;;;;;5014755;28;20421;-63
2021/08/09 11:21:10;;;;;;;1.10;1.10;;;31.30;52.30;;;;;;5015068;28;20425;-61
2021/08/09 11:23:45;;;;;;;0.97;0.87;;;30.80;53.70;;;;;;5015227;28;20396;-63
2021/08/09 11:26:28;;;;;;;0.80;0.80;;;30.40;53.70;;;;;;5015304;28;20405;-62
2021/08/09 11:29:01;;;;;;;1.53;1.10;;;29.80;53.00;;;;;;5014741;28;20504;-62
2021/08/09 11:31:28;;;;;;;1.93;1.83;;;29.20;55.20;;;;;;5014874;28;20524;-62
2021/08/09 11:33:54;;;;;;;2.47;2.27;;;28.70;56.40;;;;;;5015118;28;20556;-63
2021/08/09 11:36:20;;;;;;;1.20;1.10;;;28.10;58.10;;;;;;5015117;28;20456;-61
2021/08/09 11:38:53;;;;;;;1.83;1.10;;;27.80;58.40;;;;;;5013098;28;20624;-63
2021/08/09 11:41:28;;;;;;;2.37;1.90;;;27.50;57.20;;;;;;5014801;28;20174;-63
2021/08/09 11:44:08;;;;;;;1.30;1.20;;;27.40;58.00;;;;;;5028989;28;20934;-62
2021/08/09 11:46:48;;;;;;;0.93;0.90;;;27.20;57.30;;;;;;5033885;28;20763;-64
2021/08/09 11:49:14;;;;;;;1.37;1.27;;;27.00;58.80;;;;;;5034577;28;21001;-61
2021/08/09 11:51:40;;;;;;;2.60;2.13;;;26.90;59.00;;;;;;5034358;28;20460;-62
2021/08/09 11:54:05;;;;;;;1.57;1.47;;;26.60;57.80;;;;;;5034483;28;20540;-62
2021/08/09 11:56:34;;;;;;;3.20;2.90;;;26.30;58.40;;;;;;5034489;28;20430;-63
2021/08/09 11:59:10;;;;;;;0.80;0.80;;;26.20;60.70;;;;;;5033842;28;20198;-61
2021/08/09 12:01:37;;;;;;;2.07;1.20;;;26.00;63.80;;;;;;5034451;28;20452;-63
2021/08/09 12:04:08;;;;;;;3.73;1.10;;;26.00;66.60;;;;;;5034463;28;20831;-61
2021/08/09 12:06:45;;;;;;;1.43;1.10;;;26.20;66.60;;;;;;5033945;28;20455;-63
2021/08/09 12:09:13;;;;;;;1.67;0.87;;;26.20;62.90;;;;;;5034317;28;20747;-61
2021/08/09 12:11:39;;;;;;;1.30;1.20;;;26.20;64.00;;;;;;5034088;28;20400;-62
2021/08/09 12:14:12;;;;;;;1.27;0.93;;;26.30;61.60;;;;;;5014446;28;20465;-63
2021/08/09 12:16:46;;;;;;;4.47;1.33;;;26.30;60.80;;;;;;5013935;28;20380;-63
2021/08/09 12:19:14;;;;;;;0.67;0.67;;;26.30;62.00;;;;;;5014211;28;20425;-62
2021/08/09 12:21:40;;;;;;;1.07;1.07;;;26.30;62.10;;;;;;5013854;28;20920;-63
2021/08/09 12:24:20;;;;;;;1.43;1.40;;;26.30;62.70;;;;;;5013981;28;20749;-61
2021/08/09 12:26:46;;;;;;;1.03;1.00;;;26.20;62.10;;;;;;5016323;28;20414;-62
2021/08/09 12:29:20;;;;;;;1.83;0.83;;;26.20;63.70;;;;;;5033887;28;20543;-61
2021/08/09 12:31:47;;;;;;;1.20;1.10;;;26.20;61.50;;;;;;5033771;28;20190;-63
2021/08/09 12:34:15;;;;;;;0.97;0.93;;;26.20;63.70;;;;;;5033636;28;20955;-62
2021/08/09 12:36:41;;;;;;;1.83;1.50;;;26.10;63.60;;;;;;5033215;28;20409;-63
2021/08/09 12:39:08;;;;;;;1.47;1.10;;;26.10;66.60;;;;;;5033615;28;20459;-62
2021/08/09 12:41:35;;;;;;;1.00;1.00;;;26.10;63.20;;;;;;5029081;28;20405;-64
2021/08/09 12:44:04;;;;;;;1.07;0.97;;;26.20;61.80;;;;;;5013710;28;20425;-61
2021/08/09 12:46:31;;;;;;;0.80;0.80;;;26.20;61.10;;;;;;5013717;28;20407;-68
2021/08/09 12:48:56;;;;;;;1.63;1.13;;;26.10;61.40;;;;;;5012299;28;20955;-61
2021/08/09 12:51:22;;;;;;;1.00;0.97;;;26.00;62.70;;;;;;5013861;28;20414;-63
2021/08/09 12:53:48;;;;;;;1.30;1.20;;;25.90;63.80;;;;;;5013792;28;20175;-64